createdAt,value
2022-12-14T00:01:33.115Z,29.80
2022-12-14T00:03:59.561Z,29.80
2022-12-14T00:06:26.070Z,29.90
2022-12-14T00:08:52.541Z,29.80
2022-12-14T00:11:19.005Z,29.80
2022-12-14T00:13:45.488Z,29.40
2022-12-14T00:16:15.611Z,29.80
2022-12-14T00:18:42.098Z,29.80
2022-12-14T00:21:08.576Z,29.90
2022-12-14T00:23:38.881Z,29.40
2022-12-14T00:26:05.770Z,29.80
2022-12-14T00:28:32.266Z,29.80
2022-12-14T00:30:58.790Z,29.80
2022-12-14T00:33:25.305Z,29.40
2022-12-14T00:35:51.783Z,29.80
2022-12-14T00:38:18.214Z,29.80
2022-12-14T00:40:44.665Z,29.80
2022-12-14T00:43:11.093Z,29.40
2022-12-14T00:45:37.520Z,29.80
2022-12-14T00:48:04.009Z,29.80
2022-12-14T00:50:30.513Z,29.80
2022-12-14T00:52:57.005Z,29.40
2022-12-14T00:55:23.439Z,29.80
2022-12-14T00:57:49.866Z,29.80
2022-12-14T01:00:16.355Z,29.80
2022-12-14T01:02:42.894Z,29.80
2022-12-14T01:05:09.358Z,29.80
2022-12-14T01:07:35.844Z,29.80
2022-12-14T01:10:02.275Z,29.80
2022-12-14T01:12:28.781Z,29.40
2022-12-14T01:14:55.266Z,29.80
2022-12-14T01:17:21.705Z,29.80
2022-12-14T01:19:49.434Z,29.70
2022-12-14T01:22:15.995Z,29.70
2022-12-14T01:24:42.480Z,29.80
2022-12-14T01:27:08.961Z,29.80
2022-12-14T01:29:35.448Z,29.80
2022-12-14T01:32:01.968Z,29.30
2022-12-14T01:34:28.413Z,29.80
2022-12-14T01:36:54.835Z,29.80
2022-12-14T01:39:21.287Z,29.80
2022-12-14T01:41:47.769Z,29.80
2022-12-14T01:44:14.196Z,29.80
2022-12-14T01:46:40.694Z,29.80
2022-12-14T01:49:07.249Z,29.80
2022-12-14T01:51:33.692Z,29.90
2022-12-14T01:54:00.175Z,29.90
2022-12-14T01:56:26.626Z,30.00
2022-12-14T01:58:53.048Z,30.10
2022-12-14T02:01:19.635Z,30.00
2022-12-14T02:03:46.217Z,30.00
2022-12-14T02:06:12.653Z,30.10
2022-12-14T02:08:39.106Z,30.10
2022-12-14T02:11:05.594Z,29.80
2022-12-14T02:13:32.101Z,30.20
2022-12-14T02:15:58.624Z,30.00
2022-12-14T02:18:25.165Z,30.00
2022-12-14T02:20:51.605Z,29.90
2022-12-14T02:23:18.105Z,29.90
2022-12-14T02:25:44.536Z,29.90
2022-12-14T02:28:15.987Z,29.90
2022-12-14T02:30:42.457Z,29.90
2022-12-14T02:33:08.935Z,29.60
2022-12-14T02:35:35.406Z,29.30
2022-12-14T02:38:01.867Z,29.80
2022-12-14T02:40:28.316Z,29.90
2022-12-14T02:42:54.740Z,29.90
2022-12-14T02:45:21.239Z,29.90
2022-12-14T02:47:47.693Z,29.90
2022-12-14T02:50:14.200Z,29.90
2022-12-14T02:52:40.685Z,29.40
2022-12-14T02:55:07.123Z,29.90
2022-12-14T02:57:33.635Z,29.90
2022-12-14T03:00:00.147Z,29.90
2022-12-14T03:02:26.658Z,29.90
2022-12-14T03:04:53.187Z,29.90
2022-12-14T03:07:19.776Z,29.80
2022-12-14T03:09:46.276Z,29.50
2022-12-14T03:12:12.710Z,29.10
2022-12-14T03:14:39.219Z,29.90
2022-12-14T03:17:05.693Z,29.50
2022-12-14T03:19:32.173Z,29.80
2022-12-14T03:21:58.592Z,29.90
2022-12-14T03:24:25.057Z,29.40
2022-12-14T03:26:51.484Z,29.80
2022-12-14T03:29:17.961Z,29.80
2022-12-14T03:31:44.456Z,29.00
2022-12-14T03:34:15.662Z,29.80
2022-12-14T03:36:42.171Z,29.90
2022-12-14T03:39:08.644Z,29.80
2022-12-14T03:41:35.109Z,29.40
2022-12-14T03:44:01.587Z,29.50
2022-12-14T03:46:28.081Z,29.90
2022-12-14T03:48:54.524Z,29.90
2022-12-14T03:51:21.009Z,29.90
2022-12-14T03:53:47.506Z,29.90
2022-12-14T03:56:13.988Z,29.90
2022-12-14T03:58:40.464Z,29.90
2022-12-14T04:01:06.940Z,29.90
2022-12-14T04:03:33.424Z,29.50
2022-12-14T04:05:59.880Z,29.90
2022-12-14T04:08:26.345Z,29.80
2022-12-14T04:10:52.773Z,29.80
2022-12-14T04:13:19.248Z,29.40
2022-12-14T04:15:45.714Z,29.90
2022-12-14T04:18:12.210Z,29.90
2022-12-14T04:20:38.644Z,30.00
2022-12-14T04:23:05.087Z,29.80
2022-12-14T04:25:31.518Z,30.00
2022-12-14T04:27:58.080Z,30.10
2022-12-14T04:30:24.510Z,30.20
2022-12-14T04:32:51.015Z,29.80
2022-12-14T04:35:17.457Z,30.20
2022-12-14T04:37:43.886Z,30.20
2022-12-14T04:40:10.335Z,30.20
2022-12-14T04:42:36.868Z,30.30
2022-12-14T04:45:03.328Z,30.20
2022-12-14T04:47:29.750Z,30.30
2022-12-14T04:49:56.225Z,30.40
2022-12-14T04:52:22.705Z,30.40
2022-12-14T04:54:49.166Z,30.30
2022-12-14T04:57:19.133Z,30.30
2022-12-14T04:59:45.974Z,30.40
2022-12-14T05:02:12.523Z,30.10
2022-12-14T05:04:39.097Z,31.00
2022-12-14T05:07:05.532Z,30.40
2022-12-14T05:09:32.031Z,30.40
2022-12-14T05:11:58.515Z,30.50
2022-12-14T05:14:24.962Z,30.10
2022-12-14T05:16:51.451Z,30.50
2022-12-14T05:19:18.000Z,30.10
2022-12-14T05:21:44.470Z,30.90
2022-12-14T05:24:10.912Z,30.70
2022-12-14T05:26:37.370Z,30.80
2022-12-14T05:29:03.839Z,30.70
2022-12-14T05:31:30.319Z,30.90
2022-12-14T05:33:56.740Z,30.70
2022-12-14T05:36:23.276Z,30.70
2022-12-14T05:38:49.754Z,30.80
2022-12-14T05:41:16.245Z,30.80
2022-12-14T05:43:42.719Z,30.90
2022-12-14T05:46:09.200Z,30.90
2022-12-14T05:48:35.745Z,30.30
2022-12-14T05:51:02.279Z,30.80
2022-12-14T05:53:29.165Z,30.60
2022-12-14T05:55:56.244Z,31.00
2022-12-14T05:58:22.680Z,30.40
2022-12-14T06:00:49.179Z,30.40
2022-12-14T06:03:15.715Z,30.90
2022-12-14T06:05:42.176Z,30.90
2022-12-14T06:08:08.608Z,30.80
2022-12-14T06:10:35.067Z,30.80
2022-12-14T06:13:01.546Z,30.70
2022-12-14T06:15:33.636Z,30.70
2022-12-14T06:18:00.442Z,30.70
2022-12-14T06:20:26.952Z,30.80
2022-12-14T06:22:53.435Z,30.70
2022-12-14T06:25:19.862Z,30.60
2022-12-14T06:27:46.313Z,30.60
2022-12-14T06:30:12.811Z,30.80
2022-12-14T06:32:39.344Z,30.60
2022-12-14T06:35:05.853Z,30.80
2022-12-14T06:37:32.379Z,30.30
2022-12-14T06:39:58.847Z,31.00
2022-12-14T06:42:25.279Z,31.00
2022-12-14T06:44:51.710Z,31.00
2022-12-14T06:47:18.146Z,30.90
2022-12-14T06:49:44.643Z,30.90
2022-12-14T06:52:11.136Z,30.50
2022-12-14T06:54:37.746Z,30.60
2022-12-14T06:57:04.305Z,29.90
2022-12-14T06:59:30.755Z,30.50
2022-12-14T07:01:57.265Z,30.40
2022-12-14T07:04:23.758Z,29.90
2022-12-14T07:06:50.245Z,30.40
2022-12-14T07:09:16.766Z,30.40
2022-12-14T07:11:43.423Z,30.30
2022-12-14T07:14:09.858Z,30.20
2022-12-14T07:16:36.328Z,30.20
2022-12-14T07:19:02.827Z,30.30
2022-12-14T07:21:29.306Z,30.10
2022-12-14T07:23:55.791Z,29.80
2022-12-14T07:26:22.243Z,30.20
2022-12-14T07:28:48.671Z,30.30
2022-12-14T07:31:15.195Z,30.10
2022-12-14T07:33:41.755Z,30.20
2022-12-14T07:36:08.234Z,29.60
2022-12-14T07:38:34.709Z,30.10
2022-12-14T07:41:01.176Z,30.10
2022-12-14T07:43:27.899Z,30.10
2022-12-14T07:45:54.609Z,30.10
2022-12-14T07:48:21.080Z,30.10
2022-12-14T07:50:47.550Z,30.10
2022-12-14T07:53:13.976Z,29.70
2022-12-14T07:55:40.404Z,29.80
2022-12-14T07:58:06.884Z,30.20
2022-12-14T08:00:33.307Z,29.80
2022-12-14T08:02:59.780Z,29.70
2022-12-14T08:05:26.245Z,30.10
2022-12-14T08:07:52.773Z,30.10
2022-12-14T08:10:19.268Z,30.10
2022-12-14T08:12:45.704Z,30.20
2022-12-14T08:15:12.160Z,30.20
2022-12-14T08:17:38.626Z,30.20
2022-12-14T08:20:05.070Z,30.30
2022-12-14T08:22:31.515Z,30.30
2022-12-14T08:24:57.987Z,30.30
2022-12-14T08:27:24.472Z,30.30
2022-12-14T08:29:50.967Z,30.30
2022-12-14T08:32:17.403Z,30.10
2022-12-14T08:34:43.859Z,30.50
2022-12-14T08:37:10.341Z,30.40
2022-12-14T08:39:36.782Z,30.40
2022-12-14T08:42:03.274Z,29.70
2022-12-14T08:44:29.744Z,30.40
2022-12-14T08:46:56.274Z,30.40
2022-12-14T08:49:26.414Z,30.40
2022-12-14T08:51:55.692Z,30.40
2022-12-14T08:54:22.173Z,30.50
2022-12-14T08:56:49.271Z,30.00
2022-12-14T08:59:36.639Z,30.70
2022-12-14T09:02:02.450Z,30.10
2022-12-14T09:04:29.014Z,30.60
2022-12-14T09:06:55.584Z,30.60
2022-12-14T09:09:22.044Z,30.60
2022-12-14T09:11:48.514Z,30.60
2022-12-14T09:14:15.029Z,30.00
2022-12-14T09:16:41.562Z,30.50
2022-12-14T09:19:08.100Z,30.50
2022-12-14T09:21:34.743Z,30.60
2022-12-14T09:24:01.310Z,30.60
2022-12-14T09:26:27.763Z,30.40
2022-12-14T09:28:54.194Z,30.60
2022-12-14T09:31:20.703Z,30.60
2022-12-14T09:33:47.268Z,30.20
2022-12-14T09:36:13.799Z,30.50
2022-12-14T09:38:42.184Z,30.50
2022-12-14T09:41:17.262Z,30.60
2022-12-14T09:43:43.735Z,30.00
2022-12-14T09:46:10.209Z,30.60
2022-12-14T09:48:36.749Z,30.70
2022-12-14T09:51:03.339Z,30.00
2022-12-14T09:53:30.277Z,30.80
2022-12-14T09:55:57.085Z,30.70
2022-12-14T09:58:23.575Z,30.70
2022-12-14T10:00:53.574Z,30.80
2022-12-14T10:03:20.476Z,30.30
2022-12-14T10:05:47.057Z,30.80
2022-12-14T10:08:13.549Z,30.80
2022-12-14T10:10:39.994Z,30.80
2022-12-14T10:13:06.427Z,30.80
2022-12-14T10:15:32.926Z,30.30
2022-12-14T10:17:59.360Z,30.80
2022-12-14T10:20:25.885Z,30.80
2022-12-14T10:22:52.362Z,30.80
2022-12-14T10:25:18.832Z,30.80
2022-12-14T10:28:09.776Z,30.30
2022-12-14T10:30:31.818Z,30.20
2022-12-14T10:32:58.328Z,30.90
2022-12-14T10:35:24.804Z,30.90
2022-12-14T10:37:51.283Z,30.80
2022-12-14T10:40:27.528Z,30.50
2022-12-14T10:42:57.559Z,30.60
2022-12-14T10:45:40.301Z,30.90
2022-12-14T10:48:07.867Z,30.90
2022-12-14T10:50:34.386Z,31.00
2022-12-14T10:53:00.848Z,31.00
2022-12-14T10:55:27.314Z,31.00
2022-12-14T10:57:53.753Z,30.50
2022-12-14T11:00:23.935Z,31.10
2022-12-14T11:02:50.702Z,31.10
2022-12-14T11:05:17.244Z,31.10
2022-12-14T11:07:43.871Z,31.10
2022-12-14T11:10:10.370Z,31.10
2022-12-14T11:12:36.817Z,30.60
2022-12-14T11:15:03.310Z,30.60
2022-12-14T11:17:29.856Z,31.20
2022-12-14T11:19:56.467Z,30.90
2022-12-14T11:22:22.945Z,31.30
2022-12-14T11:24:49.406Z,31.50
2022-12-14T11:27:15.892Z,31.00
2022-12-14T11:29:42.323Z,31.30
2022-12-14T11:32:08.766Z,31.10
2022-12-14T11:34:35.206Z,31.60
2022-12-14T11:37:01.701Z,31.70
2022-12-14T11:39:28.132Z,31.80
2022-12-14T11:41:54.562Z,31.90
2022-12-14T11:44:21.030Z,32.40
2022-12-14T11:46:47.620Z,32.40
2022-12-14T11:49:14.289Z,32.40
2022-12-14T11:51:40.723Z,32.40
2022-12-14T11:54:07.144Z,32.30
2022-12-14T11:56:33.619Z,32.40
2022-12-14T11:59:00.048Z,32.30
2022-12-14T12:01:26.666Z,32.30
2022-12-14T12:03:53.263Z,32.30
2022-12-14T12:06:19.757Z,32.20
2022-12-14T12:08:46.189Z,32.20
2022-12-14T12:11:12.657Z,32.10
2022-12-14T12:13:39.134Z,31.50
2022-12-14T12:16:05.654Z,32.00
2022-12-14T12:18:32.871Z,32.00
2022-12-14T12:20:59.714Z,32.00
2022-12-14T12:23:26.456Z,31.90
2022-12-14T12:25:53.190Z,31.90
2022-12-14T12:28:19.652Z,31.40
2022-12-14T12:30:46.150Z,31.90
2022-12-14T12:33:12.661Z,31.40
2022-12-14T12:35:39.200Z,31.90
2022-12-14T12:38:05.639Z,31.80
2022-12-14T12:40:32.106Z,31.90
2022-12-14T12:42:58.657Z,31.90
2022-12-14T12:45:25.106Z,31.30
2022-12-14T12:47:51.676Z,31.90
2022-12-14T12:50:18.211Z,31.40
2022-12-14T12:52:44.706Z,31.40
2022-12-14T12:55:11.196Z,32.00
2022-12-14T12:57:37.679Z,32.00
2022-12-14T13:00:04.171Z,32.00
2022-12-14T13:02:30.769Z,32.00
2022-12-14T13:04:57.289Z,32.00
2022-12-14T13:07:23.794Z,32.00
2022-12-14T13:09:50.275Z,31.50
2022-12-14T13:12:16.749Z,31.70
2022-12-14T13:14:43.263Z,32.00
2022-12-14T13:17:16.248Z,32.20
2022-12-14T13:19:51.991Z,32.10
2022-12-14T13:22:20.783Z,31.70
2022-12-14T13:24:47.265Z,32.70
2022-12-14T13:27:17.521Z,31.90
2022-12-14T13:29:44.459Z,32.40
2022-12-14T13:32:10.914Z,32.00
2022-12-14T13:34:37.355Z,32.30
2022-12-14T13:37:03.787Z,32.30
2022-12-14T13:39:30.240Z,32.30
2022-12-14T13:41:56.749Z,32.20
2022-12-14T13:44:28.549Z,32.20
2022-12-14T13:46:59.956Z,32.20
2022-12-14T13:49:26.498Z,32.20
2022-12-14T13:51:52.935Z,32.20
2022-12-14T13:54:19.405Z,32.20
2022-12-14T13:56:45.830Z,32.20
2022-12-14T13:59:12.323Z,32.20
2022-12-14T14:01:38.783Z,32.20
2022-12-14T14:04:05.322Z,32.20
2022-12-14T14:06:31.876Z,32.20
2022-12-14T14:08:58.332Z,32.10
2022-12-14T14:11:40.223Z,31.60
2022-12-14T14:14:06.737Z,31.60
2022-12-14T14:16:33.275Z,32.10
2022-12-14T14:18:59.771Z,32.80
2022-12-14T14:21:26.207Z,32.20
2022-12-14T14:23:52.631Z,32.20
2022-12-14T14:26:19.132Z,32.20
2022-12-14T14:28:45.579Z,32.20
2022-12-14T14:31:16.119Z,32.20
2022-12-14T14:33:46.014Z,32.20
2022-12-14T14:36:12.898Z,32.20
2022-12-14T14:38:39.414Z,31.40
2022-12-14T14:41:21.317Z,32.20
2022-12-14T14:43:49.582Z,32.10
2022-12-14T14:46:22.241Z,31.90
2022-12-14T14:48:49.470Z,32.20
2022-12-14T14:51:15.904Z,32.20
2022-12-14T14:53:42.334Z,31.60
2022-12-14T14:56:08.762Z,32.20
2022-12-14T14:58:35.661Z,32.30
2022-12-14T15:01:02.422Z,32.20
2022-12-14T15:03:28.916Z,32.20
2022-12-14T15:05:55.396Z,32.30
2022-12-14T15:08:21.871Z,32.40
2022-12-14T15:10:48.354Z,32.40
2022-12-14T15:13:14.782Z,32.40
2022-12-14T15:15:41.211Z,32.40
2022-12-14T15:18:07.630Z,32.60
2022-12-14T15:20:34.101Z,32.40
2022-12-14T15:23:00.543Z,32.50
2022-12-14T15:25:27.021Z,32.40
2022-12-14T15:27:53.444Z,32.40
2022-12-14T15:30:19.913Z,32.20
2022-12-14T15:32:47.969Z,32.50
2022-12-14T15:35:14.553Z,32.50
2022-12-14T15:37:40.988Z,32.50
2022-12-14T15:40:07.484Z,32.40
2022-12-14T15:42:33.970Z,32.40
2022-12-14T15:45:00.441Z,31.80
2022-12-14T15:47:26.943Z,32.40
2022-12-14T15:49:57.670Z,32.50
2022-12-14T15:52:27.079Z,32.60
2022-12-14T15:54:53.552Z,32.50
2022-12-14T15:57:20.061Z,32.30
2022-12-14T15:59:46.485Z,32.50
2022-12-14T16:02:16.032Z,32.00
2022-12-14T16:04:42.696Z,32.00
2022-12-14T16:07:09.983Z,32.50
2022-12-14T16:09:36.610Z,31.90
2022-12-14T16:14:30.052Z,31.70
2022-12-14T16:16:56.620Z,32.40
2022-12-14T16:19:28.408Z,32.40
2022-12-14T16:21:56.405Z,32.30
2022-12-14T16:24:22.889Z,32.30
2022-12-14T16:26:49.643Z,31.80
2022-12-14T16:29:16.152Z,32.30
2022-12-14T16:31:42.704Z,32.30
2022-12-14T16:34:09.204Z,31.80
2022-12-14T16:36:35.685Z,32.40
2022-12-14T16:39:02.161Z,32.40
2022-12-14T16:41:28.683Z,32.50
2022-12-14T16:43:55.191Z,31.90
2022-12-14T16:46:21.708Z,32.50
2022-12-14T16:48:48.246Z,32.50
2022-12-14T16:51:18.749Z,32.40
2022-12-14T16:53:46.522Z,32.40
2022-12-14T16:56:12.988Z,32.30
2022-12-14T16:58:39.485Z,32.30
2022-12-14T17:01:06.008Z,31.80
2022-12-14T17:03:33.097Z,32.30
2022-12-14T17:05:59.874Z,32.30
2022-12-14T17:08:26.344Z,32.30
2022-12-14T17:10:52.849Z,32.30
2022-12-14T17:13:19.292Z,32.40
2022-12-14T17:15:45.770Z,33.00
2022-12-14T17:18:15.797Z,31.90
2022-12-14T17:20:42.452Z,31.90
2022-12-14T17:23:08.901Z,31.80
2022-12-14T17:25:35.329Z,32.40
2022-12-14T17:28:01.794Z,31.80
2022-12-14T17:30:28.301Z,32.30
2022-12-14T17:32:54.905Z,32.40
2022-12-14T17:35:21.369Z,32.40
2022-12-14T17:37:47.830Z,32.40
2022-12-14T17:40:15.932Z,32.20
2022-12-14T17:42:42.410Z,32.30
2022-12-14T17:45:08.887Z,32.40
2022-12-14T17:47:35.394Z,32.40
2022-12-14T17:50:01.879Z,32.50
2022-12-14T17:52:28.388Z,32.50
2022-12-14T17:54:54.821Z,32.50
2022-12-14T17:57:21.315Z,32.50
2022-12-14T17:59:49.720Z,32.60
2022-12-14T18:02:16.376Z,32.60
2022-12-14T18:04:42.914Z,33.00
2022-12-14T18:07:09.409Z,32.80
2022-12-14T18:09:35.836Z,32.80
2022-12-14T18:12:24.171Z,32.80
2022-12-14T18:14:48.785Z,32.90
2022-12-14T18:17:15.301Z,32.90
2022-12-14T18:19:41.775Z,33.40
2022-12-14T18:22:08.236Z,33.00
2022-12-14T18:24:34.750Z,33.40
2022-12-14T18:27:01.209Z,33.60
2022-12-14T18:29:27.684Z,33.70
2022-12-14T18:31:54.247Z,33.60
2022-12-14T18:34:20.762Z,33.10
2022-12-14T18:36:47.269Z,33.70
2022-12-14T18:39:13.706Z,33.60
2022-12-14T18:41:40.170Z,33.70
2022-12-14T18:44:06.609Z,33.70
2022-12-14T18:46:33.162Z,33.80
2022-12-14T18:48:59.663Z,33.80
2022-12-14T18:51:26.168Z,33.80
2022-12-14T18:53:52.601Z,33.30
2022-12-14T18:56:19.022Z,33.90
2022-12-14T18:58:45.523Z,33.90
2022-12-14T19:01:12.176Z,33.90
2022-12-14T19:03:38.762Z,33.90
2022-12-14T19:06:41.772Z,34.10
2022-12-14T19:08:51.716Z,34.10
2022-12-14T19:11:18.162Z,34.10
2022-12-14T19:13:44.635Z,33.60
2022-12-14T19:16:11.165Z,34.10
2022-12-14T19:18:37.706Z,34.10
2022-12-14T19:21:04.205Z,34.10
2022-12-14T19:23:31.003Z,34.10
2022-12-14T19:25:57.762Z,34.10
2022-12-14T19:28:32.460Z,34.10
2022-12-14T19:30:59.595Z,34.10
2022-12-14T19:33:26.056Z,33.60
2022-12-14T19:35:52.545Z,34.10
2022-12-14T19:38:18.984Z,34.10
2022-12-14T19:40:45.410Z,34.10
2022-12-14T19:43:11.884Z,33.50
2022-12-14T19:45:38.362Z,34.10
2022-12-14T19:48:07.710Z,33.50
2022-12-14T19:50:37.885Z,34.10
2022-12-14T19:53:04.401Z,33.70
2022-12-14T19:55:30.899Z,34.00
2022-12-14T19:57:57.381Z,33.50
2022-12-14T20:00:23.880Z,34.00
2022-12-14T20:02:50.526Z,33.40
2022-12-14T20:05:17.136Z,33.90
2022-12-14T20:07:44.151Z,33.90
2022-12-14T20:10:10.779Z,34.00
2022-12-14T20:12:37.285Z,33.50
2022-12-14T20:15:03.793Z,34.10
2022-12-14T20:17:30.287Z,33.90
2022-12-14T20:19:56.757Z,33.90
2022-12-14T20:22:23.229Z,33.90
2022-12-14T20:24:49.748Z,33.80
2022-12-14T20:27:16.218Z,33.80
2022-12-14T20:29:42.702Z,33.30
2022-12-14T20:32:09.147Z,33.90
2022-12-14T20:34:35.662Z,33.30
2022-12-14T20:37:02.097Z,33.90
2022-12-14T20:39:28.549Z,33.90
2022-12-14T20:41:55.205Z,33.30
2022-12-14T20:44:21.727Z,33.90
2022-12-14T20:46:48.309Z,33.90
2022-12-14T20:49:14.866Z,33.20
2022-12-14T20:51:41.375Z,33.40
2022-12-14T20:54:07.805Z,33.40
2022-12-14T20:56:34.305Z,34.00
2022-12-14T20:59:00.771Z,33.90
2022-12-14T21:01:27.350Z,33.60
2022-12-14T21:03:54.135Z,33.20
2022-12-14T21:06:20.675Z,33.90
2022-12-14T21:08:47.127Z,33.70
2022-12-14T21:11:15.783Z,33.80
2022-12-14T21:13:42.260Z,33.80
2022-12-14T21:16:08.754Z,33.80
2022-12-14T21:18:35.227Z,33.80
2022-12-14T21:21:01.884Z,33.70
2022-12-14T21:23:28.899Z,33.10
2022-12-14T21:25:55.614Z,33.60
2022-12-14T21:28:22.904Z,33.10
2022-12-14T21:30:50.843Z,33.70
2022-12-14T21:33:17.472Z,33.50
2022-12-14T21:35:43.945Z,33.50
2022-12-14T21:38:10.429Z,33.00
2022-12-14T21:40:36.944Z,33.50
2022-12-14T21:43:03.459Z,33.30
2022-12-14T21:45:30.011Z,33.50
2022-12-14T21:47:56.584Z,33.50
2022-12-14T21:50:23.034Z,33.50
2022-12-14T21:52:49.521Z,33.30
2022-12-14T21:55:15.999Z,33.60
2022-12-14T21:57:42.445Z,33.60
2022-12-14T22:00:08.962Z,33.00
2022-12-14T22:02:35.538Z,33.50
2022-12-14T22:05:02.152Z,33.60
2022-12-14T22:07:28.632Z,33.40
2022-12-14T22:09:55.098Z,33.60
2022-12-14T22:12:21.666Z,33.60
2022-12-14T22:14:48.168Z,33.60
2022-12-14T22:17:14.688Z,33.00
2022-12-14T22:19:41.161Z,33.50
2022-12-14T22:22:07.726Z,33.50
2022-12-14T22:24:34.225Z,33.40
2022-12-14T22:27:00.700Z,32.90
2022-12-14T22:29:27.134Z,33.40
2022-12-14T22:31:53.669Z,33.40
2022-12-14T22:34:20.193Z,33.40
2022-12-14T22:36:46.707Z,33.40
2022-12-14T22:39:13.136Z,32.90
2022-12-14T22:41:39.615Z,33.40
2022-12-14T22:44:06.221Z,32.80
2022-12-14T22:46:32.707Z,33.40
2022-12-14T22:48:59.210Z,33.40
2022-12-14T22:51:25.688Z,32.80
2022-12-14T22:53:52.165Z,33.30
2022-12-14T22:56:20.208Z,32.80
2022-12-14T22:58:49.516Z,33.40
2022-12-14T23:01:16.160Z,33.30
2022-12-14T23:03:42.997Z,33.30
2022-12-14T23:06:09.546Z,33.30
2022-12-14T23:08:36.032Z,33.40
2022-12-14T23:11:02.567Z,33.30
2022-12-14T23:13:29.344Z,33.30
2022-12-14T23:15:56.131Z,32.70
2022-12-14T23:18:22.618Z,33.30
2022-12-14T23:20:49.047Z,33.30
2022-12-14T23:23:15.487Z,32.70
2022-12-14T23:25:42.014Z,33.20
2022-12-14T23:28:08.505Z,32.20
2022-12-14T23:30:35.061Z,33.30
2022-12-14T23:33:01.571Z,33.20
2022-12-14T23:35:28.087Z,32.40
2022-12-14T23:37:54.744Z,33.20
2022-12-14T23:40:21.244Z,33.20
2022-12-14T23:45:14.727Z,32.80
2022-12-14T23:47:41.226Z,33.20
2022-12-14T23:50:07.663Z,33.20
2022-12-14T23:52:34.144Z,33.20
2022-12-14T23:55:00.671Z,33.20
2022-12-14T23:57:27.309Z,33.20
2022-12-14T23:59:53.796Z,33.20
